createdAt,value
2019-04-05T00:01:12.326Z,54.04
2019-04-05T00:03:43.869Z,54.10
2019-04-05T00:06:15.742Z,54.15
2019-04-05T00:08:47.395Z,54.12
2019-04-05T00:11:18.756Z,54.16
2019-04-05T00:13:50.499Z,54.40
2019-04-05T00:16:21.838Z,54.55
2019-04-05T00:18:53.396Z,54.60
2019-04-05T00:21:24.945Z,54.72
2019-04-05T00:23:56.606Z,54.97
2019-04-05T00:26:28.154Z,55.15
2019-04-05T00:29:00.729Z,55.10
2019-04-05T00:31:32.552Z,55.13
2019-04-05T00:34:04.200Z,55.02
2019-04-05T00:36:35.968Z,55.10
2019-04-05T00:39:08.993Z,55.04
2019-04-05T00:41:40.469Z,55.14
2019-04-05T00:44:12.730Z,55.24
2019-04-05T00:46:44.816Z,55.48
2019-04-05T00:49:16.638Z,55.77
2019-04-05T00:51:48.216Z,55.77
2019-04-05T00:54:19.958Z,55.96
2019-04-05T00:56:51.291Z,56.21
2019-04-05T00:59:22.972Z,56.46
2019-04-05T01:01:54.408Z,56.92
2019-04-05T01:04:26.067Z,57.41
2019-04-05T01:06:57.925Z,58.00
2019-04-05T01:09:29.698Z,59.02
2019-04-05T01:12:01.024Z,59.34
2019-04-05T01:14:32.447Z,59.99
2019-04-05T01:17:04.371Z,59.62
2019-04-05T01:19:35.688Z,59.88
2019-04-05T01:22:07.248Z,59.46
2019-04-05T01:24:39.027Z,60.06
2019-04-05T01:27:10.858Z,60.88
2019-04-05T01:29:43.187Z,61.29
2019-04-05T01:32:14.739Z,61.10
2019-04-05T01:34:46.277Z,61.82
2019-04-05T01:37:18.102Z,62.40
2019-04-05T01:39:51.190Z,62.77
2019-04-05T01:42:23.144Z,63.60
2019-04-05T01:44:54.900Z,64.31
2019-04-05T01:47:26.666Z,65.55
2019-04-05T01:49:58.219Z,66.75
2019-04-05T01:52:29.866Z,67.02
2019-04-05T01:55:01.291Z,68.08
2019-04-05T01:57:33.074Z,68.24
2019-04-05T02:00:10.189Z,69.34
2019-04-05T02:02:41.708Z,69.22
2019-04-05T02:05:13.874Z,69.95
2019-04-05T02:07:45.427Z,69.88
2019-04-05T02:10:17.073Z,70.79
2019-04-05T02:12:48.737Z,70.69
2019-04-05T02:15:27.403Z,70.46
2019-04-05T02:17:58.882Z,70.75
2019-04-05T02:20:30.255Z,70.83
2019-04-05T02:23:01.822Z,71.57
2019-04-05T02:25:33.331Z,71.95
2019-04-05T02:28:05.042Z,72.19
2019-04-05T02:30:36.680Z,72.98
2019-04-05T02:33:08.262Z,72.89
2019-04-05T02:35:39.612Z,73.20
2019-04-05T02:38:11.262Z,65.44
2019-04-05T02:40:43.334Z,68.14
2019-04-05T02:43:15.567Z,71.38
2019-04-05T02:45:47.082Z,67.38
2019-04-05T02:48:18.771Z,69.02
2019-04-05T02:50:52.490Z,69.63
2019-04-05T02:53:24.338Z,65.79
2019-04-05T02:55:55.783Z,68.55
2019-04-05T02:58:27.431Z,65.87
2019-04-05T03:00:59.147Z,65.56
2019-04-05T03:03:31.030Z,65.98
2019-04-05T03:06:02.617Z,65.98
2019-04-05T03:08:34.366Z,65.69
2019-04-05T03:11:06.865Z,66.10
2019-04-05T03:13:47.310Z,66.39
2019-04-05T03:16:21.310Z,66.27
2019-04-05T03:18:58.936Z,66.57
2019-04-05T03:21:30.481Z,67.14
2019-04-05T03:24:03.731Z,65.15
2019-04-05T03:26:38.441Z,66.04
2019-04-05T03:31:44.921Z,64.19
2019-04-05T03:34:16.342Z,64.01
2019-04-05T03:36:51.413Z,63.67
2019-04-05T03:39:23.093Z,62.13
2019-04-05T03:41:54.788Z,59.02
2019-04-05T03:44:26.817Z,56.25
2019-04-05T03:46:59.578Z,52.73
2019-04-05T03:49:31.265Z,49.35
2019-04-05T03:52:03.434Z,47.14
2019-04-05T03:54:36.113Z,44.55
2019-04-05T03:57:07.871Z,42.08
2019-04-05T03:59:39.637Z,40.06
2019-04-05T04:02:11.215Z,38.35
2019-04-05T04:04:43.383Z,36.39
2019-04-05T04:07:14.686Z,35.05
2019-04-05T04:09:46.613Z,34.74
2019-04-05T04:12:18.419Z,33.54
2019-04-05T04:14:50.006Z,32.24
2019-04-05T04:17:21.838Z,31.15
2019-04-05T04:19:53.198Z,30.11
2019-04-05T04:22:27.625Z,28.98
2019-04-05T04:24:59.474Z,28.48
2019-04-05T04:27:30.930Z,28.19
2019-04-05T04:30:02.671Z,26.73
2019-04-05T04:32:35.438Z,25.66
2019-04-05T04:35:06.960Z,24.50
2019-04-05T04:37:38.638Z,24.68
2019-04-05T04:40:10.228Z,24.14
2019-04-05T04:42:42.068Z,23.86
2019-04-05T04:45:14.347Z,24.21
2019-04-05T04:47:46.369Z,23.64
2019-04-05T04:50:17.856Z,23.14
2019-04-05T04:52:49.637Z,22.45
2019-04-05T04:55:21.924Z,21.41
2019-04-05T04:57:53.718Z,22.25
2019-04-05T05:00:25.194Z,21.84
2019-04-05T05:02:56.910Z,21.38
2019-04-05T05:05:28.193Z,20.89
2019-04-05T05:08:00.054Z,20.22
2019-04-05T05:10:31.875Z,21.75
2019-04-05T05:13:03.817Z,21.83
2019-04-05T05:15:35.263Z,21.09
2019-04-05T05:18:06.882Z,20.04
2019-04-05T05:20:38.366Z,19.28
2019-04-05T05:23:10.182Z,19.43
2019-04-05T05:25:41.945Z,20.09
2019-04-05T05:28:13.625Z,19.43
2019-04-05T05:30:45.096Z,18.71
2019-04-05T05:33:16.720Z,19.10
2019-04-05T05:35:48.114Z,19.00
2019-04-05T05:38:19.821Z,19.03
2019-04-05T05:40:51.372Z,18.84
2019-04-05T05:43:24.013Z,18.73
2019-04-05T05:45:55.603Z,18.22
2019-04-05T05:48:27.259Z,18.58
2019-04-05T05:50:58.926Z,18.13
2019-04-05T05:53:30.565Z,18.07
2019-04-05T05:56:02.226Z,18.00
2019-04-05T05:58:33.885Z,18.37
2019-04-05T06:01:05.431Z,18.28
2019-04-05T06:03:37.248Z,17.93
2019-04-05T06:06:08.677Z,16.41
2019-04-05T06:08:40.831Z,16.43
2019-04-05T06:11:12.768Z,15.64
2019-04-05T06:13:43.803Z,15.72
2019-04-05T06:16:15.403Z,15.71
2019-04-05T06:18:48.636Z,15.71
2019-04-05T06:21:20.622Z,15.65
2019-04-05T06:23:52.476Z,15.24
2019-04-05T06:26:23.879Z,15.54
2019-04-05T06:28:55.590Z,15.54
2019-04-05T06:31:27.352Z,14.98
2019-04-05T06:33:59.002Z,14.80
2019-04-05T06:36:30.559Z,15.10
2019-04-05T06:39:01.934Z,14.10
2019-04-05T06:41:34.070Z,14.29
2019-04-05T06:44:05.641Z,13.67
2019-04-05T06:46:37.684Z,13.98
2019-04-05T06:49:09.557Z,13.41
2019-04-05T06:51:41.200Z,13.71
2019-04-05T06:54:12.557Z,13.74
2019-04-05T06:56:44.205Z,13.45
2019-04-05T06:59:15.655Z,13.37
2019-04-05T07:01:47.451Z,12.82
2019-04-05T07:04:19.270Z,13.10
2019-04-05T07:06:51.030Z,12.59
2019-04-05T07:09:22.475Z,12.43
2019-04-05T07:11:54.039Z,12.54
2019-04-05T07:14:25.310Z,12.44
2019-04-05T07:16:57.141Z,12.17
2019-04-05T07:19:30.072Z,12.44
2019-04-05T07:22:01.006Z,12.75
2019-04-05T07:24:32.317Z,13.25
2019-04-05T07:27:03.783Z,12.61
2019-04-05T07:29:35.563Z,12.40
2019-04-05T07:32:07.091Z,12.12
2019-04-05T07:34:38.791Z,12.96
2019-04-05T07:37:10.183Z,13.27
2019-04-05T07:39:41.850Z,12.87
2019-04-05T07:42:13.287Z,12.48
2019-04-05T07:44:45.007Z,12.27
2019-04-05T07:47:16.483Z,11.98
2019-04-05T07:49:48.855Z,11.84
2019-04-05T07:52:19.834Z,11.78
2019-04-05T07:54:51.252Z,12.16
2019-04-05T07:57:22.805Z,13.28
2019-04-05T07:59:54.566Z,15.21
2019-04-05T08:02:26.022Z,17.81
2019-04-05T08:04:57.880Z,19.90
2019-04-05T08:07:31.889Z,21.70
2019-04-05T08:10:03.437Z,23.46
2019-04-05T08:12:35.155Z,23.46
2019-04-05T08:15:06.887Z,24.51
2019-04-05T08:17:38.305Z,24.72
2019-04-05T08:20:10.012Z,25.62
2019-04-05T08:22:41.873Z,25.11
2019-04-05T08:25:13.579Z,24.62
2019-04-05T08:27:45.472Z,24.81
2019-04-05T08:30:16.685Z,25.25
2019-04-05T08:32:48.165Z,25.62
2019-04-05T08:35:19.519Z,25.78
2019-04-05T08:37:51.648Z,26.98
2019-04-05T08:40:23.362Z,27.51
2019-04-05T08:42:54.861Z,27.81
2019-04-05T08:45:26.815Z,27.46
2019-04-05T08:47:58.579Z,27.67
2019-04-05T08:50:30.204Z,27.80
2019-04-05T08:53:01.683Z,27.61
2019-04-05T08:55:33.557Z,28.05
2019-04-05T08:58:04.883Z,27.83
2019-04-05T09:00:36.433Z,27.51
2019-04-05T09:03:07.931Z,27.31
2019-04-05T09:05:39.674Z,26.79
2019-04-05T09:08:11.336Z,26.80
2019-04-05T09:10:43.261Z,27.09
2019-04-05T09:13:14.711Z,27.02
2019-04-05T09:15:46.454Z,27.07
2019-04-05T09:18:18.697Z,27.08
2019-04-05T09:20:50.206Z,26.83
2019-04-05T09:23:21.947Z,27.01
2019-04-05T09:25:53.298Z,26.80
2019-04-05T09:28:25.119Z,27.04
2019-04-05T09:30:56.815Z,27.39
2019-04-05T09:33:28.379Z,26.73
2019-04-05T09:35:59.967Z,26.56
2019-04-05T09:38:32.011Z,26.51
2019-04-05T09:41:03.896Z,26.27
2019-04-05T09:43:35.930Z,26.13
2019-04-05T09:46:07.573Z,25.99
2019-04-05T09:48:39.341Z,25.95
2019-04-05T09:51:10.780Z,25.64
2019-04-05T09:53:42.971Z,25.53
2019-04-05T09:56:14.184Z,25.10
2019-04-05T09:58:46.039Z,25.04
2019-04-05T10:01:17.837Z,24.95
2019-04-05T10:03:49.279Z,25.20
2019-04-05T10:06:20.931Z,25.36
2019-04-05T10:08:52.569Z,24.86
2019-04-05T10:11:24.138Z,24.70
2019-04-05T10:13:55.978Z,25.71
2019-04-05T10:16:27.460Z,25.71
2019-04-05T10:18:59.631Z,25.22
2019-04-05T10:21:31.299Z,25.45
2019-04-05T10:24:02.860Z,25.03
2019-04-05T10:26:34.454Z,24.95
2019-04-05T10:29:05.728Z,24.93
2019-04-05T10:31:37.567Z,24.98
2019-04-05T10:34:09.426Z,24.84
2019-04-05T10:36:42.207Z,24.31
2019-04-05T10:39:13.706Z,24.20
2019-04-05T10:41:45.543Z,24.41
2019-04-05T10:44:17.850Z,24.43
2019-04-05T10:46:49.585Z,24.58
2019-04-05T10:49:21.167Z,24.47
2019-04-05T10:51:52.852Z,23.84
2019-04-05T10:54:25.248Z,23.98
2019-04-05T10:56:57.023Z,24.16
2019-04-05T10:59:29.582Z,23.92
2019-04-05T11:02:01.987Z,24.17
2019-04-05T11:04:33.611Z,24.41
2019-04-05T11:07:05.760Z,24.54
2019-04-05T11:09:37.130Z,24.53
2019-04-05T11:12:09.814Z,24.49
2019-04-05T11:14:41.286Z,24.47
2019-04-05T11:17:12.886Z,24.49
2019-04-05T11:19:44.338Z,24.72
2019-04-05T11:22:20.137Z,24.52
2019-04-05T11:24:50.015Z,24.66
2019-04-05T11:27:21.568Z,24.58
2019-04-05T11:29:53.212Z,24.41
2019-04-05T11:32:24.662Z,24.58
2019-04-05T11:34:56.424Z,24.15
2019-04-05T11:37:28.133Z,24.01
2019-04-05T11:40:00.082Z,23.64
2019-04-05T11:42:33.046Z,23.51
2019-04-05T11:45:05.747Z,23.74
2019-04-05T11:47:37.873Z,23.65
2019-04-05T11:50:10.919Z,24.17
2019-04-05T11:52:42.582Z,23.62
2019-04-05T11:55:18.176Z,23.64
2019-04-05T11:57:48.702Z,23.67
2019-04-05T12:00:37.135Z,23.08
2019-04-05T12:03:10.692Z,22.90
2019-04-05T12:05:42.512Z,22.90
2019-04-05T12:08:13.855Z,23.21
2019-04-05T12:10:46.532Z,22.97
2019-04-05T12:13:18.209Z,23.07
2019-04-05T12:15:49.840Z,22.98
2019-04-05T12:18:21.197Z,23.02
2019-04-05T12:20:59.909Z,23.20
2019-04-05T12:23:25.969Z,23.47
2019-04-05T12:25:57.722Z,23.82
2019-04-05T12:28:29.179Z,23.42
2019-04-05T12:31:00.782Z,23.30
2019-04-05T12:33:32.787Z,23.87
2019-04-05T12:36:04.616Z,23.29
2019-04-05T12:38:36.174Z,23.54
2019-04-05T12:41:10.709Z,22.66
2019-04-05T12:43:44.014Z,23.20
2019-04-05T12:46:16.096Z,23.03
2019-04-05T12:48:48.072Z,23.27
2019-04-05T12:51:19.776Z,23.38
2019-04-05T12:53:51.734Z,23.38
2019-04-05T12:56:24.386Z,23.37
2019-04-05T12:58:56.730Z,23.26
2019-04-05T13:01:28.734Z,22.92
2019-04-05T13:04:00.202Z,22.87
2019-04-05T13:06:32.497Z,23.05
2019-04-05T13:09:05.908Z,23.12
2019-04-05T13:11:37.719Z,22.74
2019-04-05T13:14:09.395Z,22.70
2019-04-05T13:16:41.121Z,22.54
2019-04-05T13:19:12.898Z,22.67
2019-04-05T13:21:44.452Z,22.50
2019-04-05T13:24:16.120Z,22.50
2019-04-05T13:26:47.757Z,22.31
2019-04-05T13:29:20.281Z,22.51
2019-04-05T13:31:51.997Z,22.47
2019-04-05T13:34:25.957Z,22.65
2019-04-05T13:36:59.359Z,22.91
2019-04-05T13:39:30.879Z,23.16
2019-04-05T13:42:02.510Z,22.98
2019-04-05T13:44:35.667Z,22.83
2019-04-05T13:47:08.480Z,22.91
2019-04-05T13:49:40.675Z,22.91
2019-04-05T13:52:12.762Z,23.30
2019-04-05T13:54:44.308Z,23.19
2019-04-05T13:57:16.449Z,23.15
2019-04-05T13:59:48.938Z,23.31
2019-04-05T14:02:21.131Z,23.17
2019-04-05T14:04:54.296Z,23.18
2019-04-05T14:07:26.492Z,23.30
2019-04-05T14:09:57.889Z,23.30
2019-04-05T14:12:31.295Z,23.20
2019-04-05T14:15:02.741Z,22.75
2019-04-05T14:17:35.053Z,23.03
2019-04-05T14:20:09.086Z,23.04
2019-04-05T14:22:40.800Z,23.12
2019-04-05T14:25:12.573Z,23.22
2019-04-05T14:27:44.615Z,23.04
2019-04-05T14:30:16.037Z,23.08
2019-04-05T14:32:50.852Z,22.92
2019-04-05T14:35:24.532Z,23.35
2019-04-05T14:37:55.244Z,23.37
2019-04-05T14:40:29.365Z,23.17
2019-04-05T14:43:00.258Z,23.41
2019-04-05T14:45:31.800Z,23.34
2019-04-05T14:48:03.599Z,23.53
2019-04-05T14:50:35.234Z,23.64
2019-04-05T14:53:07.001Z,23.58
2019-04-05T14:55:38.559Z,23.48
2019-04-05T14:58:10.783Z,23.43
2019-04-05T15:00:42.107Z,23.52
2019-04-05T15:03:14.253Z,23.61
2019-04-05T15:05:46.033Z,23.69
2019-04-05T15:08:20.312Z,23.76
2019-04-05T15:10:51.479Z,23.96
2019-04-05T15:13:24.310Z,23.92
2019-04-05T15:15:56.786Z,23.90
2019-04-05T15:18:28.503Z,23.99
2019-04-05T15:21:00.118Z,24.23
2019-04-05T15:23:32.061Z,24.14
2019-04-05T15:26:03.960Z,24.51
2019-04-05T15:28:35.781Z,24.68
2019-04-05T15:31:07.297Z,25.02
2019-04-05T15:33:39.051Z,25.39
2019-04-05T15:36:10.605Z,24.85
2019-04-05T15:38:42.308Z,25.02
2019-04-05T15:41:13.951Z,25.39
2019-04-05T15:43:45.864Z,25.59
2019-04-05T15:46:17.577Z,25.65
2019-04-05T15:48:51.814Z,25.85
2019-04-05T15:51:24.818Z,26.12
2019-04-05T15:53:56.329Z,26.65
2019-04-05T15:56:27.730Z,26.90
2019-04-05T15:59:03.708Z,27.28
2019-04-05T16:01:34.358Z,27.50
2019-04-05T16:04:06.153Z,27.46
2019-04-05T16:06:39.060Z,27.33
2019-04-05T16:09:13.369Z,28.00
2019-04-05T16:11:44.921Z,28.08
2019-04-05T16:14:16.736Z,28.04
2019-04-05T16:16:48.429Z,27.96
2019-04-05T16:19:20.477Z,27.86
2019-04-05T16:21:52.501Z,28.24
2019-04-05T16:24:23.816Z,28.41
2019-04-05T16:26:55.735Z,28.52
2019-04-05T16:29:27.220Z,28.52
2019-04-05T16:31:59.143Z,28.96
2019-04-05T16:34:30.597Z,28.47
2019-04-05T16:37:02.351Z,29.18
2019-04-05T16:39:33.771Z,29.62
2019-04-05T16:42:05.382Z,28.47
2019-04-05T16:44:37.438Z,28.31
2019-04-05T16:47:09.544Z,28.29
2019-04-05T16:49:40.833Z,28.18
2019-04-05T16:52:13.165Z,27.72
2019-04-05T16:54:44.448Z,27.77
2019-04-05T16:57:16.630Z,27.91
2019-04-05T16:59:48.471Z,28.34
2019-04-05T17:02:20.063Z,28.92
2019-04-05T17:04:51.378Z,29.32
2019-04-05T17:07:57.031Z,29.40
2019-04-05T17:10:29.711Z,29.15
2019-04-05T17:13:01.176Z,28.87
2019-04-05T17:15:32.926Z,28.47
2019-04-05T17:18:05.783Z,28.32
2019-04-05T17:20:37.568Z,28.44
2019-04-05T17:23:08.889Z,28.78
2019-04-05T17:25:40.791Z,28.93
2019-04-05T17:28:12.525Z,28.85
2019-04-05T17:30:44.393Z,29.02
2019-04-05T17:33:16.079Z,28.95
2019-04-05T17:35:47.696Z,29.15
2019-04-05T17:38:19.336Z,29.21
2019-04-05T17:40:50.950Z,29.23
2019-04-05T17:43:23.295Z,29.45
2019-04-05T17:45:55.123Z,29.10
2019-04-05T17:48:26.863Z,28.94
2019-04-05T17:50:58.454Z,28.95
2019-04-05T17:53:29.911Z,29.05
2019-04-05T17:56:01.508Z,28.85
2019-04-05T17:58:33.617Z,28.87
2019-04-05T18:01:05.584Z,28.89
2019-04-05T18:03:37.558Z,29.24
2019-04-05T18:06:08.945Z,29.12
2019-04-05T18:08:40.860Z,29.23
2019-04-05T18:11:12.235Z,29.45
2019-04-05T18:13:44.821Z,29.28
2019-04-05T18:16:16.333Z,30.70
2019-04-05T18:18:48.250Z,29.33
2019-04-05T18:21:19.647Z,29.11
2019-04-05T18:23:51.395Z,29.04
2019-04-05T18:26:22.752Z,29.18
2019-04-05T18:28:54.808Z,29.16
2019-04-05T18:31:26.299Z,29.17
2019-04-05T18:33:58.351Z,29.48
2019-04-05T18:36:29.983Z,29.69
2019-04-05T18:39:01.667Z,29.93
2019-04-05T18:41:34.694Z,30.54
2019-04-05T18:44:06.209Z,30.21
2019-04-05T18:46:37.532Z,30.33
2019-04-05T18:49:09.711Z,30.34
2019-04-05T18:51:41.043Z,30.39
2019-04-05T18:54:12.710Z,30.35
2019-04-05T18:56:44.251Z,30.46
2019-04-05T18:59:16.027Z,30.39
2019-04-05T19:01:47.476Z,30.53
2019-04-05T19:04:19.423Z,31.00
2019-04-05T19:06:52.186Z,31.00
2019-04-05T19:09:25.843Z,31.44
2019-04-05T19:11:57.252Z,31.54
2019-04-05T19:14:28.869Z,31.43
2019-04-05T19:17:00.340Z,31.46
2019-04-05T19:19:32.205Z,31.62
2019-04-05T19:22:03.771Z,31.71
2019-04-05T19:24:35.439Z,31.79
2019-04-05T19:27:07.082Z,32.36
2019-04-05T19:29:38.937Z,32.96
2019-04-05T19:49:24.536Z,32.32
2019-04-05T19:51:56.255Z,33.02
2019-04-05T19:54:27.841Z,33.10
2019-04-05T19:56:59.409Z,33.41
2019-04-05T19:59:31.221Z,33.79
2019-04-05T20:02:03.011Z,34.18
2019-04-05T20:04:34.695Z,34.36
2019-04-05T20:07:06.259Z,34.52
2019-04-05T20:09:38.809Z,34.94
2019-04-05T20:12:10.566Z,35.39
2019-04-05T20:14:42.235Z,35.69
2019-04-05T20:17:14.110Z,36.29
2019-04-05T20:19:45.518Z,36.54
2019-04-05T20:22:17.283Z,36.96
2019-04-05T20:24:49.143Z,37.24
2019-04-05T20:27:20.938Z,37.36
2019-04-05T20:29:52.484Z,37.34
2019-04-05T20:32:24.107Z,36.31
2019-04-05T20:34:55.725Z,36.52
2019-04-05T20:37:27.539Z,37.12
2019-04-05T20:39:59.082Z,37.60
2019-04-05T20:42:30.981Z,38.13
2019-04-05T20:45:02.767Z,39.81
2019-04-05T20:47:34.766Z,39.70
2019-04-05T20:50:07.247Z,39.13
2019-04-05T20:52:38.487Z,39.46
2019-04-05T20:55:09.516Z,39.95
2019-04-05T20:57:41.409Z,39.79
2019-04-05T21:00:13.553Z,39.96
2019-04-05T21:02:45.045Z,40.33
2019-04-05T21:05:24.851Z,39.96
2019-04-05T21:07:50.078Z,39.79
2019-04-05T21:10:21.519Z,40.00
2019-04-05T21:12:53.220Z,39.24
2019-04-05T21:15:24.717Z,38.14
2019-04-05T21:17:56.378Z,37.07
2019-04-05T21:20:27.826Z,35.96
2019-04-05T21:22:59.998Z,35.48
2019-04-05T21:25:31.336Z,35.10
2019-04-05T21:28:03.154Z,34.95
2019-04-05T21:30:34.695Z,34.86
2019-04-05T21:33:06.707Z,34.73
2019-04-05T21:35:38.448Z,34.65
2019-04-05T21:38:10.373Z,34.63
2019-04-05T21:40:41.828Z,34.67
2019-04-05T21:43:13.530Z,34.77
2019-04-05T21:45:45.181Z,34.61
2019-04-05T21:48:16.817Z,34.80
2019-04-05T21:50:48.499Z,34.71
2019-04-05T21:53:20.157Z,34.67
2019-04-05T21:55:51.609Z,35.15
2019-04-05T21:58:25.888Z,34.99
2019-04-05T22:00:58.335Z,35.17
2019-04-05T22:03:30.286Z,35.29
2019-04-05T22:06:03.147Z,35.17
2019-04-05T22:08:36.045Z,35.23
2019-04-05T22:11:08.069Z,35.10
2019-04-05T22:13:40.172Z,35.08
2019-04-05T22:16:12.125Z,35.19
2019-04-05T22:18:43.937Z,35.29
2019-04-05T22:21:15.649Z,35.26
2019-04-05T22:23:47.651Z,35.29
2019-04-05T22:26:19.358Z,35.25
2019-04-05T22:28:51.682Z,35.36
2019-04-05T22:31:23.382Z,35.59
2019-04-05T22:33:55.273Z,35.79
2019-04-05T22:36:27.300Z,35.87
2019-04-05T22:38:59.570Z,35.71
2019-04-05T22:41:31.173Z,35.79
2019-04-05T22:44:03.023Z,35.88
2019-04-05T22:46:34.600Z,35.97
2019-04-05T22:49:06.342Z,36.21
2019-04-05T22:51:38.569Z,36.68
2019-04-05T22:54:10.362Z,37.22
2019-04-05T22:56:42.085Z,37.80
2019-04-05T22:59:14.256Z,38.80
2019-04-05T23:01:46.150Z,39.03
2019-04-05T23:04:18.481Z,39.22
2019-04-05T23:06:50.121Z,39.35
2019-04-05T23:09:22.538Z,39.67
2019-04-05T23:11:54.209Z,39.89
2019-04-05T23:14:26.032Z,40.01
2019-04-05T23:16:57.615Z,40.13
2019-04-05T23:19:29.965Z,40.29
2019-04-05T23:22:01.710Z,40.16
2019-04-05T23:24:33.598Z,40.26
2019-04-05T23:27:05.308Z,39.82
2019-04-05T23:29:37.427Z,39.94
2019-04-05T23:32:09.290Z,40.18
2019-04-05T23:34:40.529Z,41.12
2019-04-05T23:37:12.339Z,41.09
2019-04-05T23:39:44.086Z,41.10
2019-04-05T23:42:16.019Z,41.47
2019-04-05T23:44:48.071Z,41.76
2019-04-05T23:47:20.069Z,42.68
2019-04-05T23:49:51.647Z,43.68
2019-04-05T23:52:23.734Z,44.15
2019-04-05T23:54:55.396Z,44.53
2019-04-05T23:57:27.231Z,44.94
2019-04-05T23:59:59.092Z,45.00
